Time;durP1;ratioP1;P1;durP2;ratioP2;P2;SDS_P1;SDS_P2;PMS_P1;PMS_P2;Temp;Humidity;BMP_temperature;BMP_pressure;BME280_temperature;BME280_humidity;BME280_pressure;Samples;Min_cycle;Max_cycle;Signal;HPM_P1;HPM_P2
2022/03/26 00:02:00;;;;;;;3.72;2.35;;;19.70;46.10;;;;;;6195099;28;20101;-69
2022/03/26 00:05:00;;;;;;;4.47;3.05;;;19.70;46.00;;;;;;6194001;28;20461;-68
2022/03/26 00:08:01;;;;;;;4.55;3.05;;;19.70;46.10;;;;;;6194088;28;20128;-68
2022/03/26 00:11:02;;;;;;;3.63;3.00;;;19.70;46.00;;;;;;6193873;28;20030;-68
2022/03/26 00:14:02;;;;;;;3.35;2.72;;;19.70;46.10;;;;;;6194735;28;20489;-68
2022/03/26 00:17:03;;;;;;;3.47;2.70;;;19.70;46.10;;;;;;6194043;28;20031;-68
2022/03/26 00:20:05;;;;;;;4.20;2.92;;;19.70;46.00;;;;;;6194617;28;20033;-69
2022/03/26 00:23:06;;;;;;;4.38;3.03;;;19.70;46.80;;;;;;6193841;28;20026;-68
2022/03/26 00:26:10;;;;;;;4.07;2.70;;;19.70;46.10;;;;;;6193873;28;20033;-69
2022/03/26 00:29:11;;;;;;;3.97;3.37;;;19.70;46.00;;;;;;6193675;28;20335;-68
2022/03/26 00:32:12;;;;;;;4.82;2.97;;;19.70;46.10;;;;;;6193442;28;20747;-68
2022/03/26 00:35:12;;;;;;;4.03;2.63;;;19.70;46.10;;;;;;6194015;28;20034;-68
2022/03/26 00:38:13;;;;;;;3.60;2.72;;;19.70;46.10;;;;;;6195014;28;20022;-68
2022/03/26 00:41:14;;;;;;;3.45;2.50;;;19.70;46.10;;;;;;6193903;28;20383;-68
2022/03/26 00:44:16;;;;;;;3.75;2.85;;;19.70;46.10;;;;;;6193599;28;20029;-68
2022/03/26 00:47:16;;;;;;;3.85;2.70;;;19.70;46.10;;;;;;6193852;28;20258;-68
2022/03/26 00:50:17;;;;;;;3.45;2.65;;;19.70;46.10;;;;;;6194240;28;20041;-68
2022/03/26 00:53:18;;;;;;;6.53;3.10;;;19.70;46.10;;;;;;6194103;28;20038;-68
2022/03/26 00:56:18;;;;;;;4.32;2.83;;;19.70;46.10;;;;;;6193938;28;20031;-68
2022/03/26 00:59:19;;;;;;;3.72;2.90;;;19.70;46.10;;;;;;6193518;28;20142;-68
2022/03/26 01:02:19;;;;;;;4.65;2.80;;;19.70;46.10;;;;;;6193988;28;20023;-68
2022/03/26 01:05:20;;;;;;;4.72;3.13;;;19.70;46.10;;;;;;6193314;28;20034;-68
2022/03/26 01:08:20;;;;;;;4.75;2.55;;;19.70;46.10;;;;;;6193744;28;20485;-68
2022/03/26 01:11:22;;;;;;;3.80;2.72;;;19.70;46.10;;;;;;6193732;28;20324;-68
2022/03/26 01:14:22;;;;;;;3.50;2.80;;;19.70;46.10;;;;;;6193553;28;20027;-68
2022/03/26 01:17:23;;;;;;;3.15;2.50;;;19.70;46.20;;;;;;6193453;28;20035;-68
2022/03/26 01:20:23;;;;;;;4.85;3.03;;;19.70;46.10;;;;;;6195026;28;20023;-68
2022/03/26 01:23:24;;;;;;;3.53;2.67;;;19.70;46.20;;;;;;6197886;28;20023;-68
2022/03/26 01:26:25;;;;;;;4.28;2.83;;;19.70;46.10;;;;;;6198619;28;20026;-68
2022/03/26 01:29:25;;;;;;;3.28;2.47;;;19.70;46.20;;;;;;6198318;28;20042;-68
2022/03/26 01:32:26;;;;;;;3.28;2.63;;;19.70;46.10;;;;;;6198080;28;20038;-68
2022/03/26 01:35:26;;;;;;;3.08;2.47;;;19.70;46.20;;;;;;6198146;28;20030;-68
2022/03/26 01:38:27;;;;;;;3.25;2.67;;;19.70;46.10;;;;;;6198247;28;20308;-68
2022/03/26 01:41:27;;;;;;;2.92;2.33;;;19.70;46.10;;;;;;6198244;28;20078;-68
2022/03/26 01:44:28;;;;;;;3.45;2.88;;;19.70;46.10;;;;;;6197826;28;20038;-68
2022/03/26 01:47:28;;;;;;;3.35;2.50;;;19.70;46.10;;;;;;6197822;28;20370;-68
2022/03/26 01:50:30;;;;;;;3.88;2.80;;;19.70;46.20;;;;;;6197995;28;20065;-68
2022/03/26 01:53:30;;;;;;;3.67;2.95;;;19.70;46.10;;;;;;6197551;28;20037;-68
2022/03/26 01:56:31;;;;;;;4.55;2.85;;;19.70;46.10;;;;;;6197899;28;20035;-68
2022/03/26 01:59:33;;;;;;;2.88;2.50;;;19.70;46.10;;;;;;6197594;28;20038;-68
2022/03/26 02:02:34;;;;;;;3.97;2.90;;;19.70;46.10;;;;;;6197378;28;20061;-68
2022/03/26 02:05:34;;;;;;;3.30;2.72;;;19.70;46.10;;;;;;6197440;28;20032;-68
2022/03/26 02:08:35;;;;;;;3.35;2.70;;;19.70;46.10;;;;;;6197713;28;20064;-68
2022/03/26 02:11:37;;;;;;;3.88;2.72;;;19.70;46.10;;;;;;6197189;28;20042;-68
2022/03/26 02:14:38;;;;;;;3.47;2.70;;;19.70;46.10;;;;;;6197396;28;20029;-68
2022/03/26 02:17:39;;;;;;;3.55;2.30;;;19.70;46.10;;;;;;6197032;28;20019;-68
2022/03/26 02:20:40;;;;;;;3.63;2.58;;;19.70;46.80;;;;;;6197433;28;20030;-68
2022/03/26 02:23:41;;;;;;;3.25;2.70;;;19.70;46.10;;;;;;6196761;28;20022;-68
2022/03/26 02:26:42;;;;;;;3.17;2.47;;;19.70;46.10;;;;;;6196080;28;20096;-68
2022/03/26 02:29:42;;;;;;;3.63;2.60;;;19.70;46.10;;;;;;6196554;28;20109;-68
2022/03/26 02:32:43;;;;;;;3.58;2.45;;;19.70;46.10;;;;;;6195760;28;20100;-68
2022/03/26 02:35:43;;;;;;;2.97;2.22;;;19.70;46.10;;;;;;6197349;28;20037;-69
2022/03/26 02:38:44;;;;;;;3.17;2.03;;;19.70;46.10;;;;;;6196651;28;20453;-68
2022/03/26 02:41:44;;;;;;;4.20;3.03;;;19.70;46.10;;;;;;6196832;28;20101;-68
2022/03/26 02:44:45;;;;;;;3.20;2.63;;;19.60;46.00;;;;;;6196219;28;20470;-68
2022/03/26 02:47:48;;;;;;;2.95;2.47;;;19.70;46.10;;;;;;6196271;28;20026;-67
2022/03/26 02:50:50;;;;;;;4.50;3.00;;;19.60;46.00;;;;;;6196534;28;20026;-68
2022/03/26 02:53:50;;;;;;;4.03;2.97;;;19.70;46.10;;;;;;6196825;28;20089;-68
2022/03/26 02:56:54;;;;;;;3.78;2.88;;;19.70;46.10;;;;;;6197486;28;20038;-68
2022/03/26 02:59:54;;;;;;;3.03;2.40;;;19.70;46.10;;;;;;6197303;28;20444;-68
2022/03/26 03:02:55;;;;;;;2.97;2.47;;;19.60;46.00;;;;;;6196904;28;20026;-68
2022/03/26 03:05:55;;;;;;;3.17;2.60;;;19.60;46.00;;;;;;6196405;28;20053;-68
2022/03/26 03:08:56;;;;;;;2.78;2.25;;;19.60;46.00;;;;;;6196119;28;20034;-68
2022/03/26 03:11:57;;;;;;;3.60;2.67;;;19.70;46.10;;;;;;6195858;28;20402;-68
2022/03/26 03:14:57;;;;;;;3.05;2.40;;;19.70;46.10;;;;;;6195990;28;20030;-68
2022/03/26 03:17:57;;;;;;;3.83;2.60;;;19.70;46.10;;;;;;6195895;28;20050;-68
2022/03/26 03:20:58;;;;;;;2.88;2.38;;;19.60;46.00;;;;;;6195634;28;20026;-68
2022/03/26 03:23:58;;;;;;;3.75;2.60;;;19.60;46.10;;;;;;6195600;28;20057;-68
2022/03/26 03:26:59;;;;;;;2.80;2.50;;;19.60;46.00;;;;;;6195512;28;20097;-68
2022/03/26 03:30:00;;;;;;;3.35;2.80;;;19.60;46.00;;;;;;6195511;28;20101;-68
2022/03/26 03:33:00;;;;;;;4.15;2.67;;;19.60;46.00;;;;;;6194100;28;20022;-68
2022/03/26 03:36:01;;;;;;;3.40;2.38;;;19.60;46.00;;;;;;6195427;28;20018;-68
2022/03/26 03:39:01;;;;;;;3.22;2.58;;;19.70;46.10;;;;;;6195288;28;20017;-68
2022/03/26 03:42:03;;;;;;;2.92;2.30;;;19.70;46.10;;;;;;6195632;28;20018;-68
2022/03/26 03:45:04;;;;;;;2.85;2.25;;;19.60;46.00;;;;;;6194767;28;20500;-67
2022/03/26 03:48:05;;;;;;;3.10;2.78;;;19.70;46.10;;;;;;6195063;28;20027;-68
2022/03/26 03:51:07;;;;;;;4.78;3.17;;;19.70;46.10;;;;;;6195452;28;20478;-68
2022/03/26 03:54:08;;;;;;;3.70;2.67;;;19.60;46.00;;;;;;6194492;28;20034;-68
2022/03/26 03:57:08;;;;;;;2.92;2.50;;;19.60;46.00;;;;;;6195009;28;20022;-68
2022/03/26 04:00:11;;;;;;;3.05;2.40;;;19.60;46.00;;;;;;6195168;28;20034;-68
2022/03/26 04:03:12;;;;;;;3.88;2.63;;;19.60;46.00;;;;;;6194866;28;20129;-68
2022/03/26 04:06:12;;;;;;;3.45;2.70;;;19.60;46.00;;;;;;6194952;28;20217;-68
2022/03/26 04:09:13;;;;;;;3.15;2.47;;;19.60;46.00;;;;;;6195464;28;20523;-68
2022/03/26 04:12:13;;;;;;;2.67;2.08;;;19.60;46.00;;;;;;6194639;28;20030;-68
2022/03/26 04:15:14;;;;;;;2.88;2.55;;;19.60;46.00;;;;;;6194439;28;20429;-68
2022/03/26 04:18:15;;;;;;;2.88;2.15;;;19.60;46.00;;;;;;6194509;28;20046;-68
2022/03/26 04:21:16;;;;;;;3.00;2.20;;;19.60;46.00;;;;;;6194268;28;20359;-68
2022/03/26 04:24:16;;;;;;;3.08;2.22;;;19.60;46.00;;;;;;6193890;28;20022;-68
2022/03/26 04:27:17;;;;;;;4.68;2.88;;;19.60;46.00;;;;;;6194108;28;20057;-68
2022/03/26 04:30:18;;;;;;;3.08;2.10;;;19.60;46.00;;;;;;6208636;28;20502;-68
2022/03/26 04:33:18;;;;;;;2.47;1.95;;;19.60;46.00;;;;;;6194155;28;20063;-68
2022/03/26 04:36:20;;;;;;;3.05;2.45;;;19.70;46.10;;;;;;6193975;28;20419;-68
2022/03/26 04:39:21;;;;;;;2.80;2.50;;;19.60;46.00;;;;;;6194255;28;20124;-68
2022/03/26 04:42:22;;;;;;;3.42;2.35;;;19.60;46.00;;;;;;6193853;28;20031;-68
2022/03/26 04:45:23;;;;;;;2.50;2.03;;;19.60;46.00;;;;;;6194123;28;20033;-68
2022/03/26 04:48:23;;;;;;;2.70;1.90;;;19.60;46.00;;;;;;6193337;28;20422;-68
2022/03/26 04:51:24;;;;;;;2.20;1.75;;;19.60;46.00;;;;;;6194001;28;20161;-68
2022/03/26 04:54:24;;;;;;;3.13;2.22;;;19.70;46.10;;;;;;6194716;28;20026;-68
2022/03/26 04:57:25;;;;;;;2.75;2.38;;;19.60;46.00;;;;;;6202304;28;20065;-68
2022/03/26 05:00:35;;;;;;;2.90;2.20;;;19.60;46.00;;;;;;6201789;28;20032;-68
2022/03/26 05:03:35;;;;;;;3.90;2.15;;;19.60;46.00;;;;;;6201658;28;20054;-68
2022/03/26 05:06:36;;;;;;;3.17;2.38;;;19.60;46.00;;;;;;6202260;28;20023;-68
2022/03/26 05:09:36;;;;;;;3.13;2.30;;;19.60;46.00;;;;;;6202039;28;20596;-68
2022/03/26 05:12:37;;;;;;;3.10;2.38;;;19.60;46.00;;;;;;6201667;28;20445;-68
2022/03/26 05:15:37;;;;;;;3.70;2.70;;;19.60;46.00;;;;;;6201869;28;20132;-68
2022/03/26 05:18:39;;;;;;;2.63;2.30;;;19.60;46.00;;;;;;6201554;28;20117;-67
2022/03/26 05:21:39;;;;;;;3.33;2.42;;;19.60;46.00;;;;;;6201572;28;20491;-68
2022/03/26 05:24:40;;;;;;;2.80;2.33;;;19.60;46.00;;;;;;6200869;28;20026;-68
2022/03/26 05:27:48;;;;;;;3.42;2.25;;;19.70;46.10;;;;;;6201366;28;20057;-68
2022/03/26 05:30:50;;;;;;;2.53;2.15;;;19.60;46.00;;;;;;6201300;28;20026;-68
2022/03/26 05:33:51;;;;;;;2.75;2.28;;;19.60;46.00;;;;;;6201589;28;20101;-69
2022/03/26 05:36:51;;;;;;;2.80;2.20;;;19.60;46.00;;;;;;6201410;28;20424;-68
2022/03/26 05:39:52;;;;;;;3.10;2.13;;;19.70;46.00;;;;;;6201801;28;20381;-68
2022/03/26 05:42:53;;;;;;;3.35;2.25;;;19.60;46.00;;;;;;6201923;28;20022;-68
2022/03/26 05:45:53;;;;;;;3.35;2.10;;;19.70;46.00;;;;;;6201130;28;20022;-68
2022/03/26 05:48:54;;;;;;;2.58;2.13;;;19.60;46.00;;;;;;6201432;28;20178;-68
2022/03/26 05:51:54;;;;;;;3.13;2.35;;;19.60;46.00;;;;;;6201567;28;20089;-68
2022/03/26 05:54:55;;;;;;;3.50;2.92;;;19.60;46.00;;;;;;6201239;28;20027;-69
2022/03/26 05:57:55;;;;;;;4.00;2.30;;;19.60;46.00;;;;;;6201567;28;20033;-68
2022/03/26 06:00:56;;;;;;;3.13;2.30;;;19.60;46.00;;;;;;6199703;28;20030;-68
2022/03/26 06:03:56;;;;;;;2.83;2.00;;;19.60;46.00;;;;;;6176912;28;20027;-68
2022/03/26 06:06:57;;;;;;;2.92;2.13;;;19.60;46.00;;;;;;6175806;28;20387;-68
2022/03/26 06:09:57;;;;;;;2.38;2.10;;;19.60;46.00;;;;;;6173018;28;20023;-68
2022/03/26 06:12:58;;;;;;;2.65;2.20;;;19.60;46.00;;;;;;6173146;28;20038;-67
2022/03/26 06:15:59;;;;;;;2.85;2.47;;;19.60;46.00;;;;;;6173172;28;20026;-68
2022/03/26 06:18:59;;;;;;;3.15;2.45;;;19.60;46.00;;;;;;6173147;28;20023;-67
2022/03/26 06:22:00;;;;;;;2.65;2.08;;;19.60;46.00;;;;;;6172917;28;20666;-69
2022/03/26 06:25:00;;;;;;;2.28;2.08;;;19.60;46.00;;;;;;6178250;28;20031;-68
2022/03/26 06:28:01;;;;;;;3.53;2.30;;;19.60;46.00;;;;;;6197017;28;20054;-68
2022/03/26 06:31:01;;;;;;;2.90;2.13;;;19.60;46.00;;;;;;6196830;28;20107;-68
2022/03/26 06:34:02;;;;;;;3.03;2.28;;;19.60;45.90;;;;;;6197033;28;20419;-68
2022/03/26 06:37:03;;;;;;;3.00;2.20;;;19.60;45.90;;;;;;6196922;28;20102;-68
2022/03/26 06:40:04;;;;;;;2.63;2.30;;;19.60;45.90;;;;;;6197203;28;20029;-68
2022/03/26 06:43:06;;;;;;;3.05;2.35;;;19.60;45.90;;;;;;6196636;28;20026;-68
2022/03/26 06:46:06;;;;;;;2.92;2.60;;;19.60;45.90;;;;;;6196850;28;20040;-68
2022/03/26 06:49:08;;;;;;;2.65;2.00;;;19.60;45.90;;;;;;6196538;28;20501;-68
2022/03/26 06:52:09;;;;;;;2.88;2.28;;;19.60;46.00;;;;;;6196264;28;20026;-68
2022/03/26 06:55:10;;;;;;;2.63;1.90;;;19.60;45.90;;;;;;6196576;28;20370;-68
2022/03/26 06:58:10;;;;;;;2.25;2.03;;;19.60;45.90;;;;;;6197099;28;20092;-68
2022/03/26 07:01:11;;;;;;;2.53;2.08;;;19.60;45.90;;;;;;6196416;28;20425;-68
2022/03/26 07:04:12;;;;;;;2.40;1.95;;;19.60;45.90;;;;;;6195814;28;20019;-68
2022/03/26 07:07:14;;;;;;;2.35;2.03;;;19.60;45.90;;;;;;6196219;28;20019;-68
2022/03/26 07:10:14;;;;;;;3.15;2.38;;;19.60;45.90;;;;;;6196122;28;20088;-68
2022/03/26 07:13:15;;;;;;;2.92;2.30;;;19.60;45.90;;;;;;6194880;28;20026;-68
2022/03/26 07:16:15;;;;;;;3.95;2.60;;;19.60;45.90;;;;;;6196152;28;20436;-68
2022/03/26 07:19:16;;;;;;;2.63;1.90;;;19.60;45.90;;;;;;6195263;28;20504;-68
2022/03/26 07:22:17;;;;;;;3.75;2.20;;;19.60;46.00;;;;;;6195868;28;20022;-68
2022/03/26 07:25:18;;;;;;;2.90;2.22;;;19.60;45.90;;;;;;6195694;28;20081;-68
2022/03/26 07:28:18;;;;;;;2.70;2.05;;;19.60;45.90;;;;;;6195198;28;20061;-68
2022/03/26 07:31:19;;;;;;;3.22;2.42;;;19.60;45.90;;;;;;6195659;28;20413;-68
2022/03/26 07:34:20;;;;;;;2.63;2.30;;;19.60;45.90;;;;;;6195280;28;20026;-68
2022/03/26 07:37:21;;;;;;;2.60;2.00;;;19.60;45.90;;;;;;6195698;28;20484;-68
2022/03/26 07:40:22;;;;;;;2.72;2.15;;;19.60;45.90;;;;;;6195415;28;20461;-68
2022/03/26 07:43:22;;;;;;;4.95;2.20;;;19.60;45.90;;;;;;6196021;28;20065;-68
2022/03/26 07:46:23;;;;;;;2.33;1.70;;;19.70;46.00;;;;;;6195127;28;20030;-68
2022/03/26 07:49:24;;;;;;;2.13;1.92;;;19.60;46.00;;;;;;6195144;28;20034;-68
2022/03/26 07:52:24;;;;;;;3.30;2.28;;;19.60;45.90;;;;;;6195361;28;20026;-68
2022/03/26 07:55:25;;;;;;;2.95;2.20;;;19.60;45.90;;;;;;6195088;28;20105;-68
2022/03/26 07:58:26;;;;;;;2.88;2.15;;;19.60;45.90;;;;;;6195163;28;20062;-68
2022/03/26 08:01:27;;;;;;;2.33;1.85;;;19.60;45.90;;;;;;6194951;28;20492;-68
2022/03/26 08:04:28;;;;;;;3.33;2.38;;;19.60;45.90;;;;;;6194454;28;20054;-68
2022/03/26 08:07:29;;;;;;;3.10;2.15;;;19.60;46.00;;;;;;6194815;28;20502;-68
2022/03/26 08:10:29;;;;;;;2.15;1.95;;;19.60;45.90;;;;;;6194406;28;20288;-68
2022/03/26 08:13:30;;;;;;;2.53;2.13;;;19.60;45.90;;;;;;6194332;28;20030;-68
2022/03/26 08:16:30;;;;;;;2.60;2.35;;;19.60;46.00;;;;;;6194315;28;20057;-68
2022/03/26 08:19:34;;;;;;;2.47;2.05;;;19.60;45.90;;;;;;6194537;28;20034;-68
2022/03/26 08:22:35;;;;;;;2.25;1.92;;;19.60;46.00;;;;;;6194604;28;20018;-68
2022/03/26 08:28:56;;;;;;;3.03;2.42;;;19.60;46.00;;;;;;6193665;28;20085;-68
2022/03/26 08:31:57;;;;;;;2.47;2.03;;;19.60;46.00;;;;;;6193240;28;20470;-68
2022/03/26 08:34:57;;;;;;;2.97;2.35;;;19.60;46.00;;;;;;6194011;28;20101;-68
2022/03/26 08:37:58;;;;;;;3.78;2.22;;;19.60;45.90;;;;;;6192734;28;20400;-68
2022/03/26 08:40:59;;;;;;;2.85;2.30;;;19.60;46.00;;;;;;6194073;28;20029;-68
2022/03/26 08:43:59;;;;;;;2.72;2.20;;;19.60;46.00;;;;;;6194025;28;20497;-68
2022/03/26 08:47:04;;;;;;;2.38;1.95;;;19.60;46.70;;;;;;6193608;28;20018;-68
2022/03/26 08:50:06;;;;;;;3.17;2.10;;;19.60;46.00;;;;;;6193887;28;20019;-68
2022/03/26 08:53:06;;;;;;;2.47;1.98;;;19.60;46.00;;;;;;6193859;28;20035;-68
2022/03/26 08:56:08;;;;;;;2.53;2.05;;;19.60;46.00;;;;;;6193784;28;20045;-68
2022/03/26 08:59:09;;;;;;;2.53;2.05;;;19.60;46.00;;;;;;6193938;28;20088;-68
2022/03/26 09:02:09;;;;;;;2.22;2.00;;;19.60;46.00;;;;;;6193507;28;20026;-68
2022/03/26 09:05:12;;;;;;;2.78;2.13;;;19.60;46.00;;;;;;6193876;28;20548;-68
2022/03/26 09:08:13;;;;;;;2.38;2.00;;;19.60;46.00;;;;;;6194191;28;20038;-68
2022/03/26 09:11:14;;;;;;;2.67;1.85;;;19.60;46.00;;;;;;6193753;28;20038;-68
2022/03/26 09:14:14;;;;;;;1.90;1.65;;;19.60;46.10;;;;;;6193733;28;20358;-68
2022/03/26 09:17:15;;;;;;;2.13;1.92;;;19.60;46.00;;;;;;6193604;28;20125;-68
2022/03/26 09:20:16;;;;;;;2.35;1.85;;;19.60;46.00;;;;;;6193616;28;20038;-68
2022/03/26 09:23:16;;;;;;;3.65;2.05;;;19.60;46.10;;;;;;6193462;28;20033;-68
2022/03/26 09:26:17;;;;;;;1.83;1.67;;;19.60;46.10;;;;;;6193846;28;20033;-68
2022/03/26 09:29:17;;;;;;;3.05;2.28;;;19.60;46.00;;;;;;6192896;28;20501;-68
2022/03/26 09:32:18;;;;;;;2.50;1.95;;;19.60;46.00;;;;;;6193781;28;20399;-68
2022/03/26 09:35:18;;;;;;;1.90;1.70;;;19.60;46.10;;;;;;6192989;28;20027;-68
2022/03/26 09:38:19;;;;;;;2.13;1.73;;;19.60;46.00;;;;;;6193227;28;20023;-68
2022/03/26 09:41:22;;;;;;;3.72;2.55;;;19.70;46.10;;;;;;6194358;28;20026;-68
2022/03/26 09:44:23;;;;;;;3.88;2.80;;;19.60;45.80;;;;;;6197449;28;20026;-68
2022/03/26 09:47:24;;;;;;;4.57;2.90;;;19.60;45.60;;;;;;6198315;28;20026;-67
2022/03/26 09:50:25;;;;;;;9.80;3.70;;;19.60;45.80;;;;;;6197244;28;20414;-68
2022/03/26 09:53:26;;;;;;;5.30;2.97;;;19.60;45.70;;;;;;6197336;28;20053;-68
2022/03/26 09:56:30;;;;;;;3.92;2.80;;;19.60;45.70;;;;;;6197834;28;20541;-68
2022/03/26 09:59:30;;;;;;;5.55;3.00;;;19.60;45.70;;;;;;6197653;28;20019;-68
2022/03/26 10:02:31;;;;;;;4.00;2.90;;;19.60;45.70;;;;;;6197163;28;20065;-68
2022/03/26 10:05:35;;;;;;;6.43;2.85;;;19.70;45.80;;;;;;6197582;28;20026;-68
2022/03/26 10:08:41;;;;;;;4.75;3.00;;;19.60;45.80;;;;;;6196131;28;20058;-69
2022/03/26 10:11:41;;;;;;;7.13;2.95;;;19.60;45.70;;;;;;6197549;28;20108;-68
2022/03/26 10:14:59;;;;;;;3.45;2.42;;;19.60;45.80;;;;;;6197207;28;20117;-68
2022/03/26 10:18:11;;;;;;;4.55;3.08;;;19.60;45.80;;;;;;6197709;28;20026;-68
2022/03/26 10:21:17;;;;;;;4.40;2.50;;;19.60;45.70;;;;;;6197128;28;20030;-68
2022/03/26 10:24:24;;;;;;;4.30;2.75;;;19.60;45.80;;;;;;6195327;28;20026;-68
2022/03/26 10:27:25;;;;;;;3.13;2.30;;;19.60;45.90;;;;;;6196757;28;20097;-68
2022/03/26 10:34:10;;;;;;;3.80;2.50;;;19.60;45.90;;;;;;6196852;28;20026;-68
2022/03/26 10:37:10;;;;;;;3.50;2.60;;;19.60;45.90;;;;;;6197305;28;20018;-68
2022/03/26 10:40:38;;;;;;;2.50;2.20;;;19.60;45.90;;;;;;6196635;28;20432;-68
2022/03/26 10:43:41;;;;;;;3.00;1.90;;;19.60;46.00;;;;;;6197761;28;20049;-68
2022/03/26 10:46:46;;;;;;;3.13;2.40;;;19.70;46.10;;;;;;6196032;28;20113;-68
2022/03/26 10:49:47;;;;;;;3.97;2.40;;;19.60;45.90;;;;;;6196612;28;20049;-68
2022/03/26 10:52:47;;;;;;;2.53;1.90;;;19.70;46.00;;;;;;6195151;28;20038;-67
2022/03/26 10:55:48;;;;;;;3.05;2.20;;;19.70;46.10;;;;;;6195897;28;20057;-68
2022/03/26 10:58:49;;;;;;;2.55;2.10;;;19.70;46.00;;;;;;6196810;28;20036;-67
2022/03/26 11:01:49;;;;;;;2.05;1.85;;;19.70;46.10;;;;;;6195961;28;20031;-68
2022/03/26 11:04:50;;;;;;;2.38;1.80;;;19.60;46.00;;;;;;6195996;28;20031;-68
2022/03/26 11:07:53;;;;;;;2.92;2.08;;;19.60;46.00;;;;;;6195956;28;20044;-68
2022/03/26 11:10:59;;;;;;;3.17;2.05;;;19.70;46.10;;;;;;6196150;28;20030;-68
2022/03/26 11:14:02;;;;;;;3.00;2.38;;;19.70;46.10;;;;;;6195773;28;20026;-67
2022/03/26 11:17:23;;;;;;;3.70;2.22;;;19.70;46.10;;;;;;6196278;28;20033;-68
2022/03/26 11:20:36;;;;;;;3.47;2.17;;;19.70;46.10;;;;;;6195614;28;20030;-68
2022/03/26 11:24:31;;;;;;;3.03;2.03;;;19.70;46.30;;;;;;6195481;28;20081;-68
2022/03/26 11:27:40;;;;;;;3.90;1.90;;;19.70;46.80;;;;;;6192012;28;20057;-68
2022/03/26 11:30:40;;;;;;;3.33;2.03;;;19.60;46.10;;;;;;6191837;28;20279;-68
2022/03/26 11:33:41;;;;;;;2.33;1.85;;;19.70;46.10;;;;;;6195458;28;20043;-68
2022/03/26 11:36:41;;;;;;;2.17;1.98;;;19.70;46.10;;;;;;6195187;28;20030;-68
2022/03/26 11:39:47;;;;;;;2.85;2.15;;;19.60;46.00;;;;;;6196233;28;20433;-68
2022/03/26 11:42:51;;;;;;;2.40;1.95;;;19.70;46.10;;;;;;6195052;28;20080;-68
2022/03/26 11:52:48;;;;;;;2.30;1.85;;;19.60;46.80;;;;;;6195218;28;20038;-68
2022/03/26 11:55:48;;;;;;;2.47;1.85;;;19.70;46.20;;;;;;6194702;28;20540;-68
2022/03/26 11:59:25;;;;;;;2.88;2.08;;;19.70;46.20;;;;;;6194949;28;20025;-68
2022/03/26 12:02:36;;;;;;;2.63;2.00;;;19.70;46.20;;;;;;6194769;28;20053;-68
2022/03/26 12:09:04;;;;;;;2.35;2.00;;;19.70;46.20;;;;;;6194684;28;20066;-68
2022/03/26 12:12:04;;;;;;;2.60;1.95;;;19.70;46.20;;;;;;6195208;28;20393;-68
2022/03/26 12:15:05;;;;;;;3.13;1.85;;;19.70;46.30;;;;;;6194395;28;20027;-68
2022/03/26 12:18:11;;;;;;;2.00;1.77;;;19.70;46.30;;;;;;6194571;28;20026;-68
2022/03/26 12:21:20;;;;;;;3.42;2.20;;;19.70;46.30;;;;;;6194647;28;20027;-68
2022/03/26 12:24:28;;;;;;;3.33;2.13;;;19.70;46.20;;;;;;6193820;28;20046;-68
2022/03/26 12:27:29;;;;;;;1.92;1.70;;;19.70;46.20;;;;;;6194083;28;20497;-68
2022/03/26 12:30:30;;;;;;;2.15;1.80;;;19.70;46.30;;;;;;6194679;28;20112;-68
2022/03/26 12:33:45;;;;;;;2.72;1.95;;;19.70;46.30;;;;;;6194475;28;20520;-68
2022/03/26 12:36:46;;;;;;;1.45;1.30;;;19.70;46.20;;;;;;6194012;28;20023;-68
2022/03/26 12:39:46;;;;;;;2.75;2.00;;;19.70;46.90;;;;;;6194203;28;20501;-68
2022/03/26 12:42:52;;;;;;;3.22;2.00;;;19.70;46.30;;;;;;6193890;28;20345;-69
2022/03/26 12:45:54;;;;;;;1.92;1.60;;;19.70;46.30;;;;;;6194091;28;20034;-68
2022/03/26 12:48:55;;;;;;;2.20;1.80;;;19.70;46.30;;;;;;6194019;28;20105;-68
2022/03/26 12:51:56;;;;;;;2.10;1.90;;;19.70;46.30;;;;;;6194055;28;20068;-68
2022/03/26 12:54:59;;;;;;;1.83;1.42;;;19.70;46.30;;;;;;6193841;28;20038;-68
2022/03/26 13:01:21;;;;;;;2.60;1.80;;;19.70;46.30;;;;;;6194802;28;20159;-68
2022/03/26 13:04:21;;;;;;;1.83;1.60;;;19.70;46.30;;;;;;6193383;28;20493;-68
2022/03/26 13:07:22;;;;;;;1.60;1.50;;;19.70;46.30;;;;;;6197860;28;20117;-68
2022/03/26 13:10:37;;;;;;;2.90;1.90;;;19.70;46.30;;;;;;6193528;28;20033;-68
2022/03/26 13:13:46;;;;;;;3.93;1.77;;;19.70;46.30;;;;;;6193751;28;20014;-68
2022/03/26 13:16:50;;;;;;;1.80;1.70;;;19.70;46.30;;;;;;6195910;28;20022;-68
2022/03/26 13:19:57;;;;;;;2.10;1.80;;;19.70;46.30;;;;;;6198654;28;20034;-68
2022/03/26 13:23:06;;;;;;;2.85;1.90;;;19.70;46.30;;;;;;6199369;28;20112;-68
2022/03/26 13:26:06;;;;;;;2.75;1.92;;;19.70;46.30;;;;;;6198423;28;20022;-68
2022/03/26 13:29:09;;;;;;;2.70;2.17;;;19.70;46.40;;;;;;6197957;28;20042;-68
2022/03/26 13:32:10;;;;;;;2.10;1.52;;;19.70;46.30;;;;;;6198274;28;20027;-68
2022/03/26 13:35:15;;;;;;;1.60;1.50;;;19.70;46.30;;;;;;6198549;28;20381;-68
2022/03/26 13:38:16;;;;;;;1.85;1.65;;;19.70;46.30;;;;;;6198140;28;20030;-68
2022/03/26 13:41:19;;;;;;;1.95;1.67;;;19.70;46.30;;;;;;6198339;28;20018;-68
2022/03/26 13:44:22;;;;;;;1.98;1.58;;;19.70;46.40;;;;;;6197570;28;20018;-68
2022/03/26 13:47:33;;;;;;;2.00;1.80;;;19.70;46.40;;;;;;6197987;28;20022;-68
2022/03/26 13:50:35;;;;;;;2.05;1.55;;;19.70;46.40;;;;;;6198139;28;20022;-68
2022/03/26 13:53:40;;;;;;;2.97;2.15;;;19.70;46.40;;;;;;6198632;28;20113;-68
2022/03/26 13:56:40;;;;;;;2.55;1.88;;;19.70;46.30;;;;;;6197982;28;20022;-69
2022/03/26 13:59:50;;;;;;;2.10;1.60;;;19.70;46.40;;;;;;6197938;28;20046;-67
2022/03/26 14:02:52;;;;;;;2.00;1.70;;;19.70;46.40;;;;;;6197996;28;20031;-68
2022/03/26 14:05:52;;;;;;;1.98;1.60;;;19.70;46.40;;;;;;6197713;28;20141;-68
2022/03/26 14:08:53;;;;;;;2.00;1.77;;;19.70;46.40;;;;;;6197753;28;20030;-68
2022/03/26 14:11:53;;;;;;;1.65;1.48;;;19.70;46.40;;;;;;6197746;28;20027;-68
2022/03/26 14:14:54;;;;;;;2.03;1.70;;;19.70;46.40;;;;;;6197605;28;20042;-68
2022/03/26 14:17:56;;;;;;;2.08;1.60;;;19.70;46.40;;;;;;6197542;28;20109;-68
2022/03/26 14:20:56;;;;;;;2.25;1.80;;;19.70;47.10;;;;;;6197516;28;20029;-68
2022/03/26 14:23:57;;;;;;;1.95;1.52;;;19.70;46.40;;;;;;6197286;28;20474;-68
2022/03/26 14:26:57;;;;;;;1.63;1.50;;;19.70;46.40;;;;;;6195944;28;20069;-68
2022/03/26 14:29:58;;;;;;;2.47;1.40;;;19.70;46.40;;;;;;6196057;28;20718;-68
2022/03/26 14:33:01;;;;;;;2.15;1.73;;;19.70;46.40;;;;;;6196887;28;20022;-68
2022/03/26 14:36:01;;;;;;;1.65;1.52;;;19.70;46.40;;;;;;6196618;28;20031;-68
2022/03/26 14:39:02;;;;;;;2.00;1.80;;;19.70;46.50;;;;;;6196907;28;20513;-68
2022/03/26 14:42:03;;;;;;;2.28;1.80;;;19.70;46.40;;;;;;6197031;28;20030;-68
2022/03/26 14:45:05;;;;;;;1.77;1.60;;;19.70;46.40;;;;;;6197861;28;20033;-68
2022/03/26 14:48:06;;;;;;;2.90;1.48;;;19.70;46.50;;;;;;6196453;28;20034;-68
2022/03/26 14:51:07;;;;;;;1.70;1.60;;;19.70;46.50;;;;;;6196563;28;20034;-68
2022/03/26 14:54:07;;;;;;;1.70;1.40;;;19.70;46.40;;;;;;6196652;28;20034;-68
2022/03/26 14:57:08;;;;;;;1.60;1.50;;;19.70;46.40;;;;;;6196429;28;20045;-68
2022/03/26 15:00:12;;;;;;;2.42;1.65;;;19.70;46.50;;;;;;6196566;28;20113;-68
2022/03/26 15:03:12;;;;;;;1.70;1.60;;;19.70;46.40;;;;;;6196236;28;20226;-68
2022/03/26 15:06:13;;;;;;;2.13;1.63;;;19.70;46.40;;;;;;6196170;28;20477;-68
2022/03/26 15:09:13;;;;;;;1.95;1.63;;;19.70;46.50;;;;;;6195980;28;20126;-68
2022/03/26 15:12:14;;;;;;;1.85;1.58;;;19.70;46.40;;;;;;6195650;28;20084;-68
2022/03/26 15:15:15;;;;;;;1.67;1.45;;;19.70;46.40;;;;;;6196131;28;20039;-68
2022/03/26 15:18:15;;;;;;;2.20;1.50;;;19.70;46.40;;;;;;6196017;28;20058;-68
2022/03/26 15:21:17;;;;;;;1.77;1.50;;;19.70;46.50;;;;;;6195919;28;20022;-69
2022/03/26 15:24:17;;;;;;;1.70;1.33;;;19.70;46.40;;;;;;6196122;28;20030;-68
2022/03/26 15:27:18;;;;;;;1.98;1.60;;;19.70;46.40;;;;;;6194735;28;20069;-68
2022/03/26 15:30:19;;;;;;;1.48;1.30;;;19.70;46.40;;;;;;6195204;28;20026;-68
2022/03/26 15:33:19;;;;;;;1.80;1.50;;;19.70;46.40;;;;;;6195401;28;20113;-68
2022/03/26 15:36:20;;;;;;;1.77;1.40;;;19.70;46.40;;;;;;6195817;28;20062;-68
2022/03/26 15:39:20;;;;;;;2.15;1.65;;;19.70;46.40;;;;;;6195107;28;20036;-68
2022/03/26 15:42:21;;;;;;;1.58;1.48;;;19.70;46.50;;;;;;6195242;28;20039;-68
2022/03/26 15:45:23;;;;;;;1.70;1.60;;;19.70;46.40;;;;;;6194844;28;20018;-68
2022/03/26 15:48:24;;;;;;;1.83;1.50;;;19.70;46.50;;;;;;6195118;28;20437;-68
2022/03/26 15:51:24;;;;;;;1.60;1.40;;;19.70;46.50;;;;;;6195057;28;20033;-68
2022/03/26 15:54:25;;;;;;;1.48;1.33;;;19.70;46.50;;;;;;6194925;28;20041;-68
2022/03/26 15:57:26;;;;;;;1.50;1.40;;;19.70;46.40;;;;;;6193808;28;20037;-68
2022/03/26 16:00:26;;;;;;;1.50;1.20;;;19.70;46.40;;;;;;6194217;28;20069;-68
2022/03/26 16:03:27;;;;;;;1.55;1.40;;;19.70;46.40;;;;;;6195235;28;20421;-68
2022/03/26 16:06:27;;;;;;;1.55;1.30;;;19.70;46.50;;;;;;6194852;28;20124;-68
2022/03/26 16:09:28;;;;;;;1.30;1.20;;;19.70;46.40;;;;;;6195103;28;20085;-68